Houma — WDD9648 — position and weather

sailwx.info

Track history (hours):
 
Tides and Currents Weather Stations Pressure Air Temp Water Temp Dewpoint Dewpoint Depression Visibility Wind Speed Wind Dir Waves Ship Positions

Houma

Owner: Kirby Inland Marine, LP, Houston, TX. More information available from US FCC via Universal Licensing System and Coast Guard Vessel Documentation Center.

Last reported at 2017-Sep-27 06:09 UTC. Time now 2017-Oct-19 16:18 UTC.
Position N 29°31' W 094°53'.
Warning: this ship's position is 22 days out of date.

Length 206 m; draft 2.9 m.

Type: . MMSI: 367314420.

Date/timePositionNaut miles runAvg speedWind from/ knotsBaromVisibWave heightAir tempDewpointWater temp
2017-Sep-27 06:09N 29°31' W 094°53'1 5.3
2017-Sep-27 06:00N 29°31' W 094°53'3 5.6
2017-Sep-27 05:30N 29°34' W 094°55'3 5.7
2017-Sep-27 05:00N 29°36' W 094°57'3 5.8
2017-Sep-27 04:30N 29°39' W 094°58'3 5.8
2017-Sep-27 04:00N 29°41' W 094°59'3 5.0
2017-Sep-27 03:29N 29°43' W 095°01'3 5.5
2017-Sep-27 03:00N 29°45' W 095°04'2 3.9
2017-Sep-27 02:30N 29°45' W 095°06'3 5.6
2017-Sep-27 02:00N 29°44' W 095°09'4 0.1
2017-Sep-25 01:01N 29°44' W 095°13'0 0.1
2017-Sep-25 00:55N 29°44' W 095°13'0 0.9
2017-Sep-25 00:27N 29°44' W 095°13'1 1.0
2017-Sep-24 23:23N 29°44' W 095°12'1 2.6
2017-Sep-24 23:00N 29°45' W 095°11'2 3.4
2017-Sep-24 22:24N 29°44' W 095°09'5 1.1
2017-Sep-24 18:19N 29°47' W 095°05'0 0.0
2017-Sep-24 17:55N 29°47' W 095°05'0 0.0
2017-Sep-24 17:28N 29°47' W 095°05'0 0.0
2017-Sep-24 16:37N 29°47' W 095°05'0 0.0
2017-Sep-24 16:16N 29°47' W 095°05'0 0.0
2017-Sep-24 15:58N 29°47' W 095°05'0 0.0
2017-Sep-24 15:28N 29°47' W 095°05'0 0.0
2017-Sep-24 14:58N 29°47' W 095°05'0 0.0
2017-Sep-24 14:25N 29°47' W 095°05'0 0.0
2017-Sep-24 13:58N 29°47' W 095°05'0 0.0
2017-Sep-24 13:28N 29°47' W 095°05'0 0.0
2017-Sep-24 12:58N 29°47' W 095°05'0 0.0
2017-Sep-24 12:28N 29°47' W 095°05'0 0.0
2017-Sep-24 11:55N 29°47' W 095°05'0 0.0
2017-Sep-24 11:28N 29°47' W 095°05'0 0.0
2017-Sep-24 10:58N 29°47' W 095°05'0 0.0
2017-Sep-24 10:25N 29°47' W 095°05'0 0.0
2017-Sep-24 09:58N 29°47' W 095°05'0 0.0
2017-Sep-24 09:22N 29°47' W 095°05'0 0.0
2017-Sep-24 06:40N 29°47' W 095°05'0 0.0
2017-Sep-24 06:28N 29°47' W 095°05'0 0.0
2017-Sep-24 05:58N 29°47' W 095°05'0 0.0
2017-Sep-24 05:28N 29°47' W 095°05'0 0.0
2017-Sep-24 04:58N 29°47' W 095°05'0 0.0
2017-Sep-24 04:28N 29°47' W 095°05'0 0.0
2017-Sep-24 03:49N 29°47' W 095°05'0 0.0
2017-Sep-24 03:28N 29°47' W 095°05'0 0.0
2017-Sep-24 02:49N 29°47' W 095°05'0 0.0
2017-Sep-24 02:25N 29°47' W 095°05'0 0.0
2017-Sep-24 01:55N 29°47' W 095°05'1 0.3
2017-Sep-23 22:30N 29°46' W 095°05'1 0.6
2017-Sep-23 20:35N 29°47' W 095°05'0 0.2
2017-Sep-23 20:14N 29°47' W 095°05'1 6.0
2017-Sep-23 20:00N 29°46' W 095°05'6 0.1
2017-Sep-21 18:27N 29°44' W 095°12'7 2.0
2017-Sep-21 15:03N 29°47' W 095°05'1 5.4
2017-Sep-21 14:53N 29°46' W 095°05'1 0.1
2017-Sep-20 23:45N 29°47' W 095°05'1 4.5
2017-Sep-20 23:29N 29°46' W 095°05'1 0.0
2017-Sep-19 22:20N 29°45' W 095°06'2 3.6
2017-Sep-19 21:50N 29°47' W 095°05'1 2.1
2017-Sep-19 21:24N 29°46' W 095°05'1 0.8
2017-Sep-19 20:17N 29°47' W 095°05'0 0.1
2017-Sep-19 19:59N 29°47' W 095°05'0 0.0
2017-Sep-19 19:30N 29°47' W 095°05'1 0.0
2017-Sep-18 16:55N 29°46' W 095°05'  
Track history (hours):
 
Tides and Currents Weather Stations Pressure Air Temp Water Temp Dewpoint Dewpoint Depression Visibility Wind Speed Wind Dir Waves Ship Positions

Houma

Owner: Kirby Inland Marine, LP, Houston, TX. More information available from US FCC via Universal Licensing System and Coast Guard Vessel Documentation Center.

Last reported at 2017-Sep-27 06:09 UTC. Time now 2017-Oct-19 16:18 UTC.
Position N 29°31' W 094°53'.
Warning: this ship's position is 22 days out of date.

Length 206 m; draft 2.9 m.

Type: . MMSI: 367314420.

Date/timePositionNaut miles runAvg speedWind from/ knotsBaromVisibWave heightAir tempDewpointWater temp
2017-Sep-27 06:09N 29°31' W 094°53'1 5.3
2017-Sep-27 06:00N 29°31' W 094°53'3 5.6
2017-Sep-27 05:30N 29°34' W 094°55'3 5.7
2017-Sep-27 05:00N 29°36' W 094°57'3 5.8
2017-Sep-27 04:30N 29°39' W 094°58'3 5.8
2017-Sep-27 04:00N 29°41' W 094°59'3 5.0
2017-Sep-27 03:29N 29°43' W 095°01'3 5.5
2017-Sep-27 03:00N 29°45' W 095°04'2 3.9
2017-Sep-27 02:30N 29°45' W 095°06'3 5.6
2017-Sep-27 02:00N 29°44' W 095°09'4 0.1
2017-Sep-25 01:01N 29°44' W 095°13'0 0.1
2017-Sep-25 00:55N 29°44' W 095°13'0 0.9
2017-Sep-25 00:27N 29°44' W 095°13'1 1.0
2017-Sep-24 23:23N 29°44' W 095°12'1 2.6
2017-Sep-24 23:00N 29°45' W 095°11'2 3.4
2017-Sep-24 22:24N 29°44' W 095°09'5 1.1
2017-Sep-24 18:19N 29°47' W 095°05'0 0.0
2017-Sep-24 17:55N 29°47' W 095°05'0 0.0
2017-Sep-24 17:28N 29°47' W 095°05'0 0.0
2017-Sep-24 16:37N 29°47' W 095°05'0 0.0
2017-Sep-24 16:16N 29°47' W 095°05'0 0.0
2017-Sep-24 15:58N 29°47' W 095°05'0 0.0
2017-Sep-24 15:28N 29°47' W 095°05'0 0.0
2017-Sep-24 14:58N 29°47' W 095°05'0 0.0
2017-Sep-24 14:25N 29°47' W 095°05'0 0.0
2017-Sep-24 13:58N 29°47' W 095°05'0 0.0
2017-Sep-24 13:28N 29°47' W 095°05'0 0.0
2017-Sep-24 12:58N 29°47' W 095°05'0 0.0
2017-Sep-24 12:28N 29°47' W 095°05'0 0.0
2017-Sep-24 11:55N 29°47' W 095°05'0 0.0
2017-Sep-24 11:28N 29°47' W 095°05'0 0.0
2017-Sep-24 10:58N 29°47' W 095°05'0 0.0
2017-Sep-24 10:25N 29°47' W 095°05'0 0.0
2017-Sep-24 09:58N 29°47' W 095°05'0 0.0
2017-Sep-24 09:22N 29°47' W 095°05'0 0.0
2017-Sep-24 06:40N 29°47' W 095°05'0 0.0
2017-Sep-24 06:28N 29°47' W 095°05'0 0.0
2017-Sep-24 05:58N 29°47' W 095°05'0 0.0
2017-Sep-24 05:28N 29°47' W 095°05'0 0.0
2017-Sep-24 04:58N 29°47' W 095°05'0 0.0
2017-Sep-24 04:28N 29°47' W 095°05'0 0.0
2017-Sep-24 03:49N 29°47' W 095°05'0 0.0
2017-Sep-24 03:28N 29°47' W 095°05'0 0.0
2017-Sep-24 02:49N 29°47' W 095°05'0 0.0
2017-Sep-24 02:25N 29°47' W 095°05'0 0.0
2017-Sep-24 01:55N 29°47' W 095°05'1 0.3
2017-Sep-23 22:30N 29°46' W 095°05'1 0.6
2017-Sep-23 20:35N 29°47' W 095°05'0 0.2
2017-Sep-23 20:14N 29°47' W 095°05'1 6.0
2017-Sep-23 20:00N 29°46' W 095°05'6 0.1
2017-Sep-21 18:27N 29°44' W 095°12'7 2.0
2017-Sep-21 15:03N 29°47' W 095°05'1 5.4
2017-Sep-21 14:53N 29°46' W 095°05'1 0.1
2017-Sep-20 23:45N 29°47' W 095°05'1 4.5
2017-Sep-20 23:29N 29°46' W 095°05'1 0.0
2017-Sep-19 22:20N 29°45' W 095°06'2 3.6
2017-Sep-19 21:50N 29°47' W 095°05'1 2.1
2017-Sep-19 21:24N 29°46' W 095°05'1 0.8
2017-Sep-19 20:17N 29°47' W 095°05'0 0.1
2017-Sep-19 19:59N 29°47' W 095°05'0 0.0
2017-Sep-19 19:30N 29°47' W 095°05'1 0.0
2017-Sep-18 16:55N 29°46' W 095°05'  

Dump ship's entire track history